Weather at Charlevoix Airport

Public forecast

Using degrees Celsius for public forecast. Weather courtesy of forecast.io.

Closest aviation weather report (METAR) to Charlevoix Airport

Report is more than 6 hours old.

Closest report is CFB Bagotville, 53.9 nm (99.8 km) NW.

2022/11/14 15:35 (retrieved 2 years ago)

CYBG 141535Z 29010KT 6SM -SN OVC029 M03/M05 A3005 RMK SC8 SLP187

Closest aviation forecast (TAF) to Charlevoix Airport

Forecast is more than 12 hours old.

Closest forecast is CFB Bagotville, 53.9 nm (99.8 km) NW.

2023/02/22 18:42 (retrieved 1 year ago)

TAF CYBG 221740Z 2218/2318 30015KT P6SM FEW040 FEW240 BECMG 2223/2301 29008KT FM230300 28005KT P6SM SCT240 FM230900 VRB03KT P6SM BKN200 RMK NXT FCST BY 222100Z